aviador You're here:

SAZM Decoded Metar

MAR DEL PLATA in ARGENTINA
Report Time2017-08-21 23:00:00
UTC Time2017-08-21 23:55:19
Flight Rules vfr VFR
Wind360° at 11 kt
W.Decomp.*RWY 31: 6.2 kt HW 9.1 kt RCW
Visibility9999 m
Phenomena:N/A
Clouds:N/A
Expected CloudBase > 2,000 ft AGL from Temp-Dew spread
CeilingNone
Temp12°C (ISA -3)
Dew Point07°C (72% RH)
AAT7.4°C
QNH1021 hPa
Density Alt-407 ft
Elevation69 ft
Report Wrong Elevation
Raw Report
METAR SAZM 212300Z 36011KT CAVOK 12/07 Q1021=

Extra information for SAZM:More info

Metar Taf Metar & Taf Last 4 Metars F.Rules Stats Wind Profile Meteogram Temp Stats Airport Information Weather charts Add Link Nearby VenuesMetar ALERT Operation Metar Decoded Social comments